createdAt,value
2018-07-25T00:01:37.344Z,3.50
2018-07-25T00:06:29.990Z,4.10
2018-07-25T00:11:22.620Z,4.07
2018-07-25T00:16:15.250Z,3.90
2018-07-25T00:21:07.958Z,3.70
2018-07-25T00:26:00.566Z,3.87
2018-07-25T00:30:53.201Z,4.20
2018-07-25T00:35:45.868Z,3.90
2018-07-25T00:40:38.532Z,4.50
2018-07-25T00:45:31.287Z,4.30
2018-07-25T00:50:23.923Z,4.07
2018-07-25T00:55:16.571Z,4.70
2018-07-25T01:00:09.176Z,5.00
2018-07-25T01:05:01.884Z,4.90
2018-07-25T01:09:54.628Z,4.80
2018-07-25T01:14:47.189Z,5.30
2018-07-25T01:19:39.815Z,4.70
2018-07-25T01:24:32.518Z,4.97
2018-07-25T01:29:25.115Z,4.90
2018-07-25T01:34:17.794Z,5.03
2018-07-25T01:39:11.010Z,4.80
2018-07-25T01:44:03.628Z,5.10
2018-07-25T01:48:56.272Z,5.40
2018-07-25T01:53:48.969Z,5.27
2018-07-25T01:58:44.478Z,5.17
2018-07-25T02:03:37.125Z,5.30
2018-07-25T02:08:29.843Z,5.10
2018-07-25T02:13:22.527Z,4.97
2018-07-25T02:18:15.195Z,5.53
2018-07-25T02:23:07.891Z,5.60
2018-07-25T02:28:00.551Z,5.50
2018-07-25T02:32:53.234Z,5.60
2018-07-25T02:37:45.893Z,5.40
2018-07-25T02:42:38.541Z,5.20
2018-07-25T02:47:31.274Z,5.43
2018-07-25T02:52:23.943Z,5.60
2018-07-25T02:57:16.569Z,5.40
2018-07-25T03:02:09.276Z,5.10
2018-07-25T03:07:01.893Z,5.73
2018-07-25T03:11:54.529Z,6.53
2018-07-25T03:16:47.147Z,5.93
2018-07-25T03:21:40.136Z,6.13
2018-07-25T03:26:32.798Z,5.83
2018-07-25T03:31:25.594Z,5.53
2018-07-25T03:36:18.190Z,6.30
2018-07-25T03:41:10.903Z,5.87
2018-07-25T03:46:03.602Z,6.27
2018-07-25T03:50:56.355Z,5.83
2018-07-25T03:55:49.040Z,5.77
2018-07-25T04:00:41.638Z,5.50
2018-07-25T04:05:34.245Z,5.33
2018-07-25T04:10:27.143Z,5.30
2018-07-25T04:15:19.751Z,5.93
2018-07-25T04:20:13.925Z,5.47
2018-07-25T04:25:06.933Z,5.87
2018-07-25T04:29:59.578Z,5.20
2018-07-25T04:34:52.490Z,5.40
2018-07-25T04:39:45.082Z,5.20
2018-07-25T04:44:37.726Z,5.67
2018-07-25T04:49:30.401Z,5.60
2018-07-25T04:54:22.999Z,5.37
2018-07-25T04:59:15.807Z,6.30
2018-07-25T05:04:08.570Z,6.27
2018-07-25T05:09:01.196Z,5.50
2018-07-25T05:13:53.949Z,5.17
2018-07-25T05:18:46.693Z,5.80
2018-07-25T05:23:39.503Z,5.63
2018-07-25T05:28:32.221Z,5.83
2018-07-25T05:33:24.847Z,5.83
2018-07-25T05:38:17.676Z,5.40
2018-07-25T05:43:10.305Z,5.77
2018-07-25T05:48:02.968Z,5.43
2018-07-25T05:52:55.715Z,5.83
2018-07-25T05:57:48.436Z,5.70
2018-07-25T06:02:41.058Z,5.17
2018-07-25T06:07:33.700Z,5.33
2018-07-25T06:12:26.338Z,5.40
2018-07-25T06:17:19.288Z,5.40
2018-07-25T06:22:11.898Z,5.07
2018-07-25T06:27:04.808Z,5.40
2018-07-25T06:31:57.377Z,5.00
2018-07-25T06:36:50.123Z,4.77
2018-07-25T06:41:42.904Z,4.70
2018-07-25T06:46:35.620Z,4.10
2018-07-25T06:51:28.275Z,4.50
2018-07-25T06:56:21.143Z,4.30
2018-07-25T07:01:13.748Z,4.57
2018-07-25T07:06:06.416Z,4.80
2018-07-25T07:10:59.072Z,5.60
2018-07-25T07:15:51.718Z,4.73
2018-07-25T07:20:44.405Z,4.27
2018-07-25T07:25:36.982Z,4.17
2018-07-25T07:30:29.647Z,4.30
2018-07-25T07:35:22.313Z,2.93
2018-07-25T07:40:14.889Z,3.60
2018-07-25T07:45:08.048Z,3.50
2018-07-25T07:50:00.705Z,3.43
2018-07-25T07:54:53.370Z,3.90
2018-07-25T07:59:45.934Z,3.93
2018-07-25T08:04:38.631Z,3.60
2018-07-25T08:09:31.193Z,3.30
2018-07-25T08:14:23.798Z,3.77
2018-07-25T08:19:16.313Z,2.90
2018-07-25T08:24:08.877Z,3.80
2018-07-25T08:29:01.471Z,3.90
2018-07-25T08:33:54.164Z,3.07
2018-07-25T08:38:46.823Z,2.60
2018-07-25T08:43:40.634Z,3.17
2018-07-25T08:48:33.267Z,3.10
2018-07-25T08:53:26.210Z,2.80
2018-07-25T08:58:18.814Z,3.27
2018-07-25T09:03:11.511Z,3.30
2018-07-25T09:08:04.282Z,3.43
2018-07-25T09:12:57.004Z,6.00
2018-07-25T09:17:49.565Z,2.60
2018-07-25T09:22:42.238Z,2.70
2018-07-25T09:27:34.885Z,2.90
2018-07-25T09:32:27.490Z,2.40
2018-07-25T09:37:20.092Z,3.03
2018-07-25T09:42:12.768Z,3.10
2018-07-25T09:47:05.474Z,2.60
2018-07-25T09:51:57.986Z,2.30
2018-07-25T09:56:50.681Z,2.40
2018-07-25T10:01:43.314Z,2.67
2018-07-25T10:06:35.957Z,3.67
2018-07-25T10:11:28.748Z,2.73
2018-07-25T10:16:21.607Z,2.20
2018-07-25T10:21:14.412Z,2.00
2018-07-25T10:26:07.096Z,2.27
2018-07-25T10:30:59.717Z,2.63
2018-07-25T10:35:52.323Z,2.57
2018-07-25T10:40:44.998Z,2.70
2018-07-25T10:45:37.565Z,2.20
2018-07-25T10:50:30.176Z,2.70
2018-07-25T10:55:22.806Z,2.70
2018-07-25T11:00:15.434Z,2.57
2018-07-25T11:05:08.347Z,2.67
2018-07-25T11:10:00.945Z,2.70
2018-07-25T11:14:53.666Z,2.17
2018-07-25T11:19:46.277Z,2.53
2018-07-25T11:24:39.072Z,2.50
2018-07-25T11:29:31.743Z,2.50
2018-07-25T11:34:24.787Z,2.50
2018-07-25T11:39:17.568Z,2.50
2018-07-25T11:44:10.429Z,2.40
2018-07-25T11:49:03.179Z,2.20
2018-07-25T11:53:55.955Z,2.43
2018-07-25T11:58:48.616Z,2.30
2018-07-25T12:03:41.407Z,2.00
2018-07-25T12:08:34.038Z,2.20
2018-07-25T12:13:26.711Z,2.23
2018-07-25T12:18:19.312Z,2.20
2018-07-25T12:23:11.991Z,2.47
2018-07-25T12:28:04.970Z,2.30
2018-07-25T12:32:57.653Z,2.40
2018-07-25T12:37:50.280Z,2.87
2018-07-25T12:42:43.136Z,2.40
2018-07-25T12:47:35.784Z,2.53
2018-07-25T12:52:28.414Z,2.43
2018-07-25T12:57:21.059Z,2.00
2018-07-25T13:02:14.070Z,2.70
2018-07-25T13:07:06.797Z,2.10
2018-07-25T13:12:00.241Z,2.40
2018-07-25T13:16:53.221Z,2.57
2018-07-25T13:21:45.873Z,2.70
2018-07-25T13:26:38.547Z,2.40
2018-07-25T13:31:31.270Z,2.60
2018-07-25T13:36:23.971Z,5.00
2018-07-25T13:41:16.703Z,2.60
2018-07-25T13:46:09.424Z,2.37
2018-07-25T13:51:02.039Z,2.40
2018-07-25T13:55:54.832Z,2.47
2018-07-25T14:00:47.528Z,2.50
2018-07-25T14:05:40.363Z,3.07
2018-07-25T14:10:33.178Z,2.50
2018-07-25T14:15:25.978Z,2.87
2018-07-25T14:20:18.663Z,2.50
2018-07-25T14:25:11.346Z,2.53
2018-07-25T14:30:04.517Z,2.50
2018-07-25T14:34:57.079Z,2.90
2018-07-25T14:39:49.784Z,2.40
2018-07-25T14:44:42.401Z,2.57
2018-07-25T14:49:35.185Z,2.50
2018-07-25T14:54:27.899Z,2.50
2018-07-25T14:59:20.921Z,5.40
2018-07-25T15:04:13.634Z,4.60
2018-07-25T15:09:08.213Z,4.17
2018-07-25T15:14:00.848Z,5.10
2018-07-25T15:18:54.092Z,3.10
2018-07-25T15:23:58.168Z,3.73
2018-07-25T15:28:50.868Z,3.30
2018-07-25T15:33:43.775Z,3.20
2018-07-25T15:38:36.423Z,3.00
2018-07-25T15:43:29.095Z,3.13
2018-07-25T15:48:21.820Z,3.10
2018-07-25T15:53:14.578Z,3.00
2018-07-25T15:58:07.308Z,3.27
2018-07-25T16:02:59.927Z,3.10
2018-07-25T16:07:52.517Z,3.20
2018-07-25T16:12:45.155Z,2.83
2018-07-25T16:17:37.839Z,3.77
2018-07-25T16:22:30.597Z,3.07
2018-07-25T16:27:23.294Z,2.90
2018-07-25T16:32:15.954Z,3.10
2018-07-25T16:37:08.637Z,2.80
2018-07-25T16:42:01.189Z,3.10
2018-07-25T16:46:53.764Z,3.40
2018-07-25T16:51:46.364Z,3.00
2018-07-25T16:56:39.255Z,2.80
2018-07-25T17:01:31.811Z,2.80
2018-07-25T17:06:24.446Z,2.97
2018-07-25T17:11:17.114Z,3.33
2018-07-25T17:16:09.890Z,2.80
2018-07-25T17:21:02.530Z,2.90
2018-07-25T17:25:55.304Z,2.80
2018-07-25T17:30:48.120Z,2.93
2018-07-25T17:35:40.892Z,3.33
2018-07-25T17:40:33.632Z,3.30
2018-07-25T17:45:26.373Z,3.27
2018-07-25T17:50:19.065Z,3.10
2018-07-25T17:55:11.669Z,2.70
2018-07-25T18:00:07.817Z,3.20
2018-07-25T18:05:00.646Z,3.13
2018-07-25T18:09:53.338Z,3.27
2018-07-25T18:14:46.130Z,3.00
2018-07-25T18:19:38.859Z,3.60
2018-07-25T18:24:31.839Z,3.27
2018-07-25T18:29:24.540Z,2.97
2018-07-25T18:34:17.248Z,3.00
2018-07-25T18:39:11.134Z,3.23
2018-07-25T18:44:03.907Z,3.17
2018-07-25T18:48:56.642Z,3.50
2018-07-25T18:53:49.368Z,5.20
2018-07-25T18:58:42.245Z,3.67
2018-07-25T19:03:34.889Z,3.57
2018-07-25T19:08:27.569Z,5.50
2018-07-25T19:13:26.031Z,6.67
2018-07-25T19:18:18.670Z,9.40
2018-07-25T19:23:11.348Z,8.80
2018-07-25T19:28:04.409Z,7.80
2018-07-25T19:32:56.997Z,7.70
2018-07-25T19:37:49.619Z,7.53
2018-07-25T19:42:42.226Z,6.27
2018-07-25T19:47:34.843Z,6.73
2018-07-25T19:52:27.513Z,7.93
2018-07-25T19:57:20.246Z,6.80
2018-07-25T20:02:12.943Z,6.10
2018-07-25T20:07:05.640Z,3.90
2018-07-25T20:11:58.327Z,5.80
2018-07-25T20:16:51.037Z,3.60
2018-07-25T20:21:43.615Z,3.87
2018-07-25T20:26:36.219Z,4.83
2018-07-25T20:31:28.826Z,5.03
2018-07-25T20:36:21.531Z,3.87
2018-07-25T20:41:14.181Z,4.20
2018-07-25T20:46:06.753Z,4.13
2018-07-25T20:50:59.398Z,8.23
2018-07-25T20:55:52.028Z,6.17
2018-07-25T21:00:44.744Z,5.13
2018-07-25T21:05:37.346Z,4.90
2018-07-25T21:10:29.973Z,3.93
2018-07-25T21:15:22.749Z,4.00
2018-07-25T21:20:15.300Z,3.37
2018-07-25T21:25:08.103Z,3.93
2018-07-25T21:30:00.680Z,4.23
2018-07-25T21:34:53.284Z,3.87
2018-07-25T21:39:45.902Z,4.30
2018-07-25T21:44:38.475Z,3.90
2018-07-25T21:49:31.124Z,3.30
2018-07-25T21:54:23.755Z,3.30
2018-07-25T21:59:16.338Z,3.70
2018-07-25T22:04:08.952Z,3.13
2018-07-25T22:09:01.673Z,3.50
2018-07-25T22:13:55.136Z,3.30
2018-07-25T22:18:47.767Z,3.70
2018-07-25T22:23:40.571Z,3.80
2018-07-25T22:28:33.504Z,3.80
2018-07-25T22:33:26.263Z,3.40
2018-07-25T22:38:18.878Z,3.53
2018-07-25T22:43:11.548Z,3.63
2018-07-25T22:48:04.134Z,3.20
2018-07-25T22:52:56.771Z,3.43
2018-07-25T22:57:49.626Z,3.00
2018-07-25T23:02:42.170Z,3.37
2018-07-25T23:07:35.010Z,3.67
2018-07-25T23:12:27.773Z,3.23
2018-07-25T23:17:20.439Z,3.40
2018-07-25T23:22:12.998Z,2.93
2018-07-25T23:27:05.812Z,3.50
2018-07-25T23:31:58.393Z,3.40
2018-07-25T23:36:50.958Z,3.50
2018-07-25T23:41:43.513Z,2.80
2018-07-25T23:46:36.521Z,3.10
2018-07-25T23:51:29.178Z,3.23
2018-07-25T23:56:21.861Z,3.27
